^^
Meteo Knjazevac Station Historical Data
Daily Summary for January 8, 2021 Units:  Metric    English   Both
Daily Weekly Monthly Yearly Custom
  High: Low: Average:
Temperature: 25.8 °C 6.6 °C 16.7 °C
Dew Point: 11.2 °C 4.3 °C 7.9 °C
Humidity: 88% 35% 60%
Wind Speed: 14.5km/h 0km/h 3.7km/h
Wind Gust: 29km/h - -
Wind- - SSE
Pressure: 1025.6 hPa 1021.9 hPa -
Precipitation: 0 mm    
Historical Graphs
 
 
Tabular Data for January 8, 2021
Time Temperature Dew Point Pressure Wind Wind Speed Wind Gust Humidity Rainfall Rate (Hourly) solar Conditions
00:00 11.1 °C 5.2 °C 1024.9 hPa West 1.6 km/h 4.8 km/h 67% 0 mm 0 W/m2
00:10 10.9 °C 5 °C 1024.9 hPa WSW 1.6 km/h 3.2 km/h 67% 0 mm 0 W/m2
00:20 10.8 °C 5.1 °C 1024.9 hPa WNW 1.6 km/h 3.2 km/h 68% 0 mm 0 W/m2
00:30 10.8 °C 5.1 °C 1024.9 hPa West 1.6 km/h 3.2 km/h 68% 0 mm 0 W/m2
00:40 10.7 °C 5.1 °C 1025.3 hPa Calm   3.2 km/h 68% 0 mm 0 W/m2
00:50 10.6 °C 5.2 °C 1024.9 hPa Calm   3.2 km/h 69% 0 mm 0 W/m2
01:00 10.6 °C 5.2 °C 1024.9 hPa East 1.6 km/h 3.2 km/h 69% 0 mm 0 W/m2
01:10 10.5 °C 5.1 °C 1024.9 hPa Calm   3.2 km/h 69% 0 mm 0 W/m2
01:20 10.4 °C 5.2 °C 1024.9 hPa WSW 1.6 km/h 6.4 km/h 70% 0 mm 0 W/m2
01:30 10.4 °C 5.2 °C 1025.3 hPa Calm   3.2 km/h 70% 0 mm 0 W/m2
01:40 10.3 °C 5.4 °C 1025.3 hPa SSE 1.6 km/h 3.2 km/h 72% 0 mm 0 W/m2
01:50 10.2 °C 5.6 °C 1025.3 hPa Calm   8 km/h 73% 0 mm 0 W/m2
02:00 10.2 °C 5.6 °C 1025.3 hPa Calm   4.8 km/h 73% 0 mm 0 W/m2
02:10 10.1 °C 5.5 °C 1025.3 hPa NW 1.6 km/h 4.8 km/h 73% 0 mm 0 W/m2
02:20 10 °C 5.4 °C 1025.3 hPa Calm   3.2 km/h 73% 0 mm 0 W/m2
02:30 9.9 °C 5.3 °C 1025.3 hPa Calm   6.4 km/h 73% 0 mm 0 W/m2
02:40 9.7 °C 5.3 °C 1025.3 hPa Calm   4.8 km/h 74% 0 mm 0 W/m2
02:50 9.5 °C 5.1 °C 1025.3 hPa Calm   3.2 km/h 74% 0 mm 0 W/m2
03:00 9.3 °C 5.1 °C 1025.3 hPa NW 1.6 km/h 3.2 km/h 75% 0 mm 0 W/m2
03:10 9.2 °C 5 °C 1025.3 hPa NW 1.6 km/h 3.2 km/h 75% 0 mm 0 W/m2
03:20 9 °C 4.8 °C 1025.3 hPa Calm   3.2 km/h 75% 0 mm 0 W/m2
03:30 8.8 °C 5 °C 1025.3 hPa NE 1.6 km/h 4.8 km/h 77% 0 mm 0 W/m2
03:40 8.7 °C 5.1 °C 1025.3 hPa Calm   3.2 km/h 78% 0 mm 0 W/m2
03:50 8.6 °C 5 °C 1025.3 hPa NW 1.6 km/h 3.2 km/h 78% 0 mm 0 W/m2
04:00 8.4 °C 4.9 °C 1025.3 hPa North 3.2 km/h 4.8 km/h 79% 0 mm 0 W/m2
04:10 8.3 °C 4.7 °C 1025.3 hPa WNW 1.6 km/h 3.2 km/h 78% 0 mm 0 W/m2
04:20 8.1 °C 4.7 °C 1025.3 hPa NNW 1.6 km/h 3.2 km/h 79% 0 mm 0 W/m2
04:30 8 °C 4.6 °C 1025.3 hPa Calm   3.2 km/h 79% 0 mm 0 W/m2
04:40 7.8 °C 4.6 °C 1025.3 hPa NNW 1.6 km/h 3.2 km/h 80% 0 mm 0 W/m2
04:50 7.7 °C 4.4 °C 1025.3 hPa Calm   3.2 km/h 80% 0 mm 0 W/m2
05:00 7.5 °C 4.4 °C 1025.3 hPa Calm   3.2 km/h 81% 0 mm 0 W/m2
05:10 7.4 °C 4.3 °C 1025.3 hPa West 1.6 km/h 4.8 km/h 81% 0 mm 0 W/m2
05:20 7.2 °C 4.5 °C 1025.3 hPa NW 1.6 km/h 4.8 km/h 83% 0 mm 0 W/m2
05:30 7 °C 4.3 °C 1025.3 hPa NW 3.2 km/h 4.8 km/h 83% 0 mm 0 W/m2
05:40 7 °C 4.3 °C 1025.3 hPa Calm   4.8 km/h 83% 0 mm 0 W/m2
05:50 7 °C 4.5 °C 1025.3 hPa NE 1.6 km/h 9.7 km/h 84% 0 mm 0 W/m2
06:00 6.8 °C 4.3 °C 1025.3 hPa West 1.6 km/h 3.2 km/h 84% 0 mm 0 W/m2
06:10 6.8 °C 4.3 °C 1025.3 hPa WNW 1.6 km/h 4.8 km/h 84% 0 mm 8 W/m2
06:20 6.7 °C 4.3 °C 1025.3 hPa Calm   4.8 km/h 85% 0 mm 15 W/m2
06:30 6.7 °C 4.3 °C 1025.3 hPa NNW 1.6 km/h 3.2 km/h 85% 0 mm 23 W/m2
06:40 6.7 °C 4.4 °C 1025.6 hPa Calm   4.8 km/h 85% 0 mm 30 W/m2
06:50 6.8 °C 4.4 °C 1025.6 hPa Calm   8 km/h 85% 0 mm 42 W/m2
07:00 6.6 °C 4.3 °C 1025.6 hPa Calm   3.2 km/h 85% 0 mm 61 W/m2
07:10 6.6 °C 4.3 °C 1025.6 hPa WNW 1.6 km/h 3.2 km/h 85% 0 mm 75 W/m2
07:20 6.6 °C 4.3 °C 1025.6 hPa Calm   3.2 km/h 85% 0 mm 85 W/m2
07:30 6.7 °C 4.5 °C 1025.6 hPa West 3.2 km/h 4.8 km/h 86% 0 mm 175 W/m2
07:40 6.9 °C 4.7 °C 1025.6 hPa West 1.6 km/h 4.8 km/h 86% 0 mm 169 W/m2
07:50 7.2 °C 5.3 °C 1025.6 hPa WNW 1.6 km/h 4.8 km/h 88% 0 mm 252 W/m2
08:00 7.7 °C 5.5 °C 1025.6 hPa Calm   4.8 km/h 86% 0 mm 268 W/m2
08:10 8.1 °C 6.2 °C 1025.6 hPa Calm   3.2 km/h 88% 0 mm 296 W/m2
08:20 8.7 °C 6.5 °C 1025.6 hPa Calm   3.2 km/h 86% 0 mm 294 W/m2
08:30 9.7 °C 7.1 °C 1025.6 hPa ESE 1.6 km/h 8 km/h 84% 0 mm 363 W/m2
08:40 10.7 °C 7.6 °C 1025.6 hPa NE 1.6 km/h 6.4 km/h 81% 0 mm 330 W/m2
08:50 11.7 °C 8.2 °C 1025.6 hPa SE 1.6 km/h 8 km/h 79% 0 mm 269 W/m2
09:00 12.2 °C 8.3 °C 1025.3 hPa SSE 1.6 km/h 6.4 km/h 77% 0 mm 400 W/m2
09:10 13.1 °C 9.2 °C 1025.3 hPa SSW 1.6 km/h 4.8 km/h 77% 0 mm 501 W/m2
09:20 14 °C 9.2 °C 1025.3 hPa SSE 1.6 km/h 8 km/h 73% 0 mm 536 W/m2
09:30 14.8 °C 9.8 °C 1025.3 hPa South 1.6 km/h 8 km/h 72% 0 mm 562 W/m2
09:40 16 °C 10.5 °C 1025.3 hPa NE 4.8 km/h 11.3 km/h 70% 0 mm 586 W/m2
09:50 17.3 °C 10.7 °C 1024.9 hPa NNW 1.6 km/h 11.3 km/h 65% 0 mm 610 W/m2
10:00 18.6 °C 11.2 °C 1024.9 hPa North 12.9 km/h 22.5 km/h 62% 0 mm 632 W/m2
10:10 19.7 °C 11.2 °C 1024.9 hPa North 9.7 km/h 25.7 km/h 58% 0 mm 654 W/m2
10:20 20.6 °C 10.9 °C 1024.9 hPa ENE 8 km/h 19.3 km/h 54% 0 mm 616 W/m2
10:30 21.3 °C 11.1 °C 1024.9 hPa ENE 8 km/h 20.9 km/h 52% 0 mm 277 W/m2
10:40 21.9 °C 10.7 °C 1024.6 hPa NE 8 km/h 16.1 km/h 49% 0 mm 371 W/m2
10:50 22.3 °C 9.8 °C 1024.6 hPa NE 9.7 km/h 20.9 km/h 45% 0 mm 240 W/m2
11:00 22.8 °C 10.2 °C 1024.6 hPa NE 9.7 km/h 20.9 km/h 45% 0 mm 705 W/m2
11:10 23 °C 10.1 °C 1024.6 hPa ENE 8 km/h 20.9 km/h 44% 0 mm 374 W/m2
11:20 22.9 °C 9.7 °C 1024.3 hPa ENE 11.3 km/h 25.7 km/h 43% 0 mm 737 W/m2
11:30 23.2 °C 9.9 °C 1024.6 hPa ENE 4.8 km/h 17.7 km/h 43% 0 mm 775 W/m2
11:40 23.6 °C 10.6 °C 1024.3 hPa NNE 12.9 km/h 24.1 km/h 44% 0 mm 783 W/m2
11:50 23.9 °C 10.9 °C 1024.3 hPa North 14.5 km/h 27.4 km/h 44% 0 mm 790 W/m2
12:00 24.2 °C 10.8 °C 1024.3 hPa NNE 8 km/h 20.9 km/h 43% 0 mm 795 W/m2
12:10 24.5 °C 10.7 °C 1024.3 hPa NNE 11.3 km/h 24.1 km/h 42% 0 mm 798 W/m2
12:20 24.7 °C 10.2 °C 1023.9 hPa NNE 9.7 km/h 25.7 km/h 40% 0 mm 800 W/m2
12:30 24.9 °C 10.3 °C 1023.9 hPa North 4.8 km/h 24.1 km/h 40% 0 mm 781 W/m2
12:40 25 °C 10.4 °C 1023.9 hPa NE 4.8 km/h 25.7 km/h 40% 0 mm 719 W/m2
12:50 25.1 °C 10.2 °C 1023.9 hPa ENE 8 km/h 29 km/h 39% 0 mm 776 W/m2
13:00 25.2 °C 10.6 °C 1023.9 hPa NNE 11.3 km/h 25.7 km/h 40% 0 mm 791 W/m2
13:10 25.3 °C 9.9 °C 1023.6 hPa NNE 8 km/h 22.5 km/h 38% 0 mm 577 W/m2
13:20 25.1 °C 9.8 °C 1023.6 hPa North 3.2 km/h 24.1 km/h 38% 0 mm 646 W/m2
13:30 25.4 °C 10.4 °C 1023.6 hPa NW 3.2 km/h 17.7 km/h 39% 0 mm 768 W/m2
13:40 25.6 °C 10.6 °C 1023.2 hPa NNE 3.2 km/h 20.9 km/h 39% 0 mm 723 W/m2
13:50 25.6 °C 9.8 °C 1023.2 hPa NNW 4.8 km/h 25.7 km/h 37% 0 mm 367 W/m2
14:00 25.3 °C 9.6 °C 1023.2 hPa NE 11.3 km/h 20.9 km/h 37% 0 mm 731 W/m2
14:10 25.4 °C 8.8 °C 1023.2 hPa East 4.8 km/h 22.5 km/h 35% 0 mm 716 W/m2
14:20 25.5 °C 9.7 °C 1022.9 hPa East 4.8 km/h 20.9 km/h 37% 0 mm 699 W/m2
14:30 25.7 °C 9.9 °C 1022.9 hPa NNE 8 km/h 20.9 km/h 37% 0 mm 680 W/m2
14:40 25.8 °C 10 °C 1022.9 hPa NNE 4.8 km/h 24.1 km/h 37% 0 mm 609 W/m2
14:50 25.8 °C 10 °C 1022.6 hPa NNW 4.8 km/h 24.1 km/h 37% 0 mm 589 W/m2
15:00 25.7 °C 9.9 °C 1022.6 hPa North 4.8 km/h 20.9 km/h 37% 0 mm 618 W/m2
15:10 25.7 °C 9.1 °C 1022.6 hPa NE 11.3 km/h 24.1 km/h 35% 0 mm 595 W/m2
15:20 25.6 °C 9.8 °C 1022.2 hPa NNE 4.8 km/h 24.1 km/h 37% 0 mm 570 W/m2
15:30 25.6 °C 9.8 °C 1022.2 hPa NNE 8 km/h 20.9 km/h 37% 0 mm 545 W/m2
15:40 25.4 °C 9.7 °C 1022.2 hPa NNE 9.7 km/h 20.9 km/h 37% 0 mm 470 W/m2
15:50 25.4 °C 9.7 °C 1022.2 hPa NW 8 km/h 19.3 km/h 37% 0 mm 492 W/m2
16:00 25.4 °C 9.7 °C 1022.2 hPa NNE 11.3 km/h 24.1 km/h 37% 0 mm 463 W/m2
16:10 25.3 °C 9.6 °C 1022.2 hPa North 3.2 km/h 24.1 km/h 37% 0 mm 435 W/m2
16:20 25.2 °C 9.4 °C 1022.2 hPa NNE 4.8 km/h 17.7 km/h 37% 0 mm 406 W/m2
16:30 25.3 °C 9.6 °C 1022.2 hPa NNW 4.8 km/h 22.5 km/h 37% 0 mm 376 W/m2
16:40 25.2 °C 9.5 °C 1022.2 hPa West 4.8 km/h 20.9 km/h 37% 0 mm 334 W/m2
16:50 24.8 °C 9.1 °C 1022.2 hPa NNE 4.8 km/h 19.3 km/h 37% 0 mm 254 W/m2
17:00 24.6 °C 9.3 °C 1022.2 hPa NNE 1.6 km/h 17.7 km/h 38% 0 mm 268 W/m2
17:10 24.5 °C 9.2 °C 1022.2 hPa ENE 4.8 km/h 20.9 km/h 38% 0 mm 254 W/m2
17:20 24.1 °C 9.3 °C 1022.2 hPa NNE 4.8 km/h 19.3 km/h 39% 0 mm 161 W/m2
17:30 23.7 °C 8.9 °C 1022.2 hPa NNE 8 km/h 20.9 km/h 39% 0 mm 194 W/m2
17:40 23.4 °C 9.7 °C 1022.2 hPa North 4.8 km/h 20.9 km/h 42% 0 mm 165 W/m2
17:50 23 °C 9.4 °C 1022.2 hPa North 4.8 km/h 16.1 km/h 42% 0 mm 137 W/m2
18:00 22.8 °C 9.2 °C 1022.2 hPa North 8 km/h 14.5 km/h 42% 0 mm 109 W/m2
18:10 22.5 °C 9.3 °C 1022.2 hPa North 4.8 km/h 16.1 km/h 43% 0 mm 83 W/m2
18:20 22.3 °C 9.4 °C 1021.9 hPa NNE 4.8 km/h 12.9 km/h 44% 0 mm 59 W/m2
18:30 22 °C 9.2 °C 1021.9 hPa North 4.8 km/h 12.9 km/h 44% 0 mm 37 W/m2
18:40 21.7 °C 8.9 °C 1021.9 hPa North 3.2 km/h 9.7 km/h 44% 0 mm 18 W/m2
18:50 21.3 °C 8.9 °C 1021.9 hPa NNW 3.2 km/h 9.7 km/h 45% 0 mm 6 W/m2
19:00 21 °C 9.6 °C 1022.2 hPa North 3.2 km/h 11.3 km/h 48% 0 mm 0 W/m2
19:10 20.7 °C 9.3 °C 1022.2 hPa North 4.8 km/h 9.7 km/h 48% 0 mm 0 W/m2
19:20 20.5 °C 9.4 °C 1022.2 hPa North 4.8 km/h 12.9 km/h 49% 0 mm 0 W/m2
19:30 20.3 °C 9.6 °C 1022.2 hPa North 4.8 km/h 14.5 km/h 50% 0 mm 0 W/m2
19:40 20 °C 9.8 °C 1022.2 hPa North 3.2 km/h 11.3 km/h 52% 0 mm 0 W/m2
19:50 19.8 °C 9.7 °C 1022.2 hPa North 4.8 km/h 12.9 km/h 52% 0 mm 0 W/m2
20:00 19.6 °C 9.8 °C 1022.6 hPa North 1.6 km/h 11.3 km/h 53% 0 mm 0 W/m2
20:10 19.4 °C 9.6 °C 1022.6 hPa NW 3.2 km/h 11.3 km/h 53% 0 mm 0 W/m2
20:20 19.2 °C 9.7 °C 1022.6 hPa North 4.8 km/h 14.5 km/h 54% 0 mm 0 W/m2
20:30 19.1 °C 9.6 °C 1022.6 hPa North 4.8 km/h 14.5 km/h 54% 0 mm 0 W/m2
20:40 19 °C 9.4 °C 1022.6 hPa North 3.2 km/h 12.9 km/h 54% 0 mm 0 W/m2
20:50 18.9 °C 9.7 °C 1022.6 hPa North 3.2 km/h 11.3 km/h 55% 0 mm 0 W/m2
21:00 18.8 °C 9.6 °C 1022.6 hPa North 3.2 km/h 12.9 km/h 55% 0 mm 0 W/m2
21:10 18.7 °C 9.4 °C 1022.6 hPa North 3.2 km/h 12.9 km/h 55% 0 mm 0 W/m2
21:20 18.6 °C 9.4 °C 1022.6 hPa North 4.8 km/h 12.9 km/h 55% 0 mm 0 W/m2
21:30 18.4 °C 9.2 °C 1022.6 hPa North 1.6 km/h 11.3 km/h 55% 0 mm 0 W/m2
21:40 18.4 °C 9.2 °C 1022.6 hPa North 3.2 km/h 12.9 km/h 55% 0 mm 0 W/m2
21:50 18.3 °C 9.6 °C 1022.9 hPa North 3.2 km/h 11.3 km/h 57% 0 mm 0 W/m2
22:00 18 °C 9.6 °C 1022.6 hPa Calm   6.4 km/h 58% 0 mm 0 W/m2
22:10 17.7 °C 9.3 °C 1022.6 hPa North 1.6 km/h 4.8 km/h 58% 0 mm 0 W/m2
22:20 17.5 °C 9.1 °C 1022.6 hPa NNE 1.6 km/h 4.8 km/h 58% 0 mm 0 W/m2
22:30 17.2 °C 9.1 °C 1022.9 hPa NNE 4.8 km/h 12.9 km/h 59% 0 mm 0 W/m2
22:40 17.2 °C 9.1 °C 1022.9 hPa NNE 1.6 km/h 12.9 km/h 59% 0 mm 0 W/m2
22:50 17.2 °C 9.4 °C 1022.9 hPa Calm   12.9 km/h 60% 0 mm 0 W/m2
23:00 16.8 °C 9.5 °C 1022.9 hPa SSE 1.6 km/h 4.8 km/h 62% 0 mm 0 W/m2
23:10 16.5 °C 9.2 °C 1022.9 hPa Calm   4.8 km/h 62% 0 mm 0 W/m2
23:20 16.2 °C 9.1 °C 1022.9 hPa NE 1.6 km/h 6.4 km/h 63% 0 mm 0 W/m2
23:30 15.7 °C 9.1 °C 1022.9 hPa SE 3.2 km/h 8 km/h 65% 0 mm 0 W/m2
23:40 15.3 °C 8.8 °C 1022.9 hPa SSE 1.6 km/h 6.4 km/h 65% 0 mm 0 W/m2
23:50 15.2 °C 9.1 °C 1022.9 hPa SSW 1.6 km/h 4.8 km/h 67% 0 mm 0 W/m2
Knjazevac, Serbia
Compliments of Weather Underground - 2 mb